sensor_id;sensor_type;location;lat;lon;timestamp;P1;durP1;ratioP1;P2;durP2;ratioP2
19509;SDS011;9896;42.486;26.506;2022-09-13T00:00:38;4.43;;;2.70;;
19509;SDS011;9896;42.486;26.506;2022-09-13T00:03:05;3.23;;;2.77;;
19509;SDS011;9896;42.486;26.506;2022-09-13T00:05:31;3.70;;;2.80;;
19509;SDS011;9896;42.486;26.506;2022-09-13T00:07:57;3.97;;;2.80;;
19509;SDS011;9896;42.486;26.506;2022-09-13T00:10:23;3.00;;;2.80;;
19509;SDS011;9896;42.486;26.506;2022-09-13T00:12:49;3.90;;;2.93;;
19509;SDS011;9896;42.486;26.506;2022-09-13T00:15:15;4.17;;;3.77;;
19509;SDS011;9896;42.486;26.506;2022-09-13T00:17:43;5.53;;;4.20;;
19509;SDS011;9896;42.486;26.506;2022-09-13T00:20:08;4.40;;;4.00;;
19509;SDS011;9896;42.486;26.506;2022-09-13T00:22:34;5.50;;;4.03;;
19509;SDS011;9896;42.486;26.506;2022-09-13T00:25:00;6.67;;;3.90;;
19509;SDS011;9896;42.486;26.506;2022-09-13T00:27:26;3.80;;;3.50;;
19509;SDS011;9896;42.486;26.506;2022-09-13T00:29:52;5.57;;;3.70;;
19509;SDS011;9896;42.486;26.506;2022-09-13T00:32:18;4.70;;;3.40;;
19509;SDS011;9896;42.486;26.506;2022-09-13T00:34:44;4.00;;;3.60;;
19509;SDS011;9896;42.486;26.506;2022-09-13T00:37:09;5.07;;;3.53;;
19509;SDS011;9896;42.486;26.506;2022-09-13T00:39:35;6.83;;;3.60;;
19509;SDS011;9896;42.486;26.506;2022-09-13T00:42:00;6.07;;;3.80;;
19509;SDS011;9896;42.486;26.506;2022-09-13T00:44:48;4.93;;;3.80;;
19509;SDS011;9896;42.486;26.506;2022-09-13T00:47:18;5.17;;;3.70;;
19509;SDS011;9896;42.486;26.506;2022-09-13T00:49:48;3.83;;;3.50;;
19509;SDS011;9896;42.486;26.506;2022-09-13T00:52:17;4.70;;;3.77;;
19509;SDS011;9896;42.486;26.506;2022-09-13T00:54:48;5.53;;;3.73;;
19509;SDS011;9896;42.486;26.506;2022-09-13T00:57:19;3.83;;;3.43;;
19509;SDS011;9896;42.486;26.506;2022-09-13T00:59:55;4.73;;;3.43;;
19509;SDS011;9896;42.486;26.506;2022-09-13T01:02:22;7.17;;;4.00;;
19509;SDS011;9896;42.486;26.506;2022-09-13T01:04:47;5.57;;;3.70;;
19509;SDS011;9896;42.486;26.506;2022-09-13T01:07:13;5.50;;;3.97;;
19509;SDS011;9896;42.486;26.506;2022-09-13T01:09:43;3.67;;;3.20;;
19509;SDS011;9896;42.486;26.506;2022-09-13T01:15:15;5.80;;;3.40;;
19509;SDS011;9896;42.486;26.506;2022-09-13T01:17:40;5.10;;;3.57;;
19509;SDS011;9896;42.486;26.506;2022-09-13T01:20:07;3.70;;;3.20;;
19509;SDS011;9896;42.486;26.506;2022-09-13T01:33:25;4.73;;;3.70;;
19509;SDS011;9896;42.486;26.506;2022-09-13T01:55:33;4.80;;;3.60;;
19509;SDS011;9896;42.486;26.506;2022-09-13T02:01:06;4.57;;;3.87;;
19509;SDS011;9896;42.486;26.506;2022-09-13T02:03:44;4.47;;;3.90;;
19509;SDS011;9896;42.486;26.506;2022-09-13T02:06:20;8.13;;;4.07;;
19509;SDS011;9896;42.486;26.506;2022-09-13T02:08:53;4.73;;;3.90;;
19509;SDS011;9896;42.486;26.506;2022-09-13T02:11:25;6.60;;;4.27;;
19509;SDS011;9896;42.486;26.506;2022-09-13T02:13:55;5.00;;;4.43;;
19509;SDS011;9896;42.486;26.506;2022-09-13T02:16:33;5.27;;;4.30;;
19509;SDS011;9896;42.486;26.506;2022-09-13T02:19:37;6.83;;;3.97;;
19509;SDS011;9896;42.486;26.506;2022-09-13T02:22:03;8.27;;;4.43;;
19509;SDS011;9896;42.486;26.506;2022-09-13T02:24:32;5.23;;;3.90;;
19509;SDS011;9896;42.486;26.506;2022-09-13T02:27:14;7.40;;;4.57;;
19509;SDS011;9896;42.486;26.506;2022-09-13T02:29:47;5.43;;;4.40;;
19509;SDS011;9896;42.486;26.506;2022-09-13T02:37:44;8.97;;;4.40;;
19509;SDS011;9896;42.486;26.506;2022-09-13T02:40:16;16.63;;;5.00;;
19509;SDS011;9896;42.486;26.506;2022-09-13T02:43:09;9.37;;;5.10;;
19509;SDS011;9896;42.486;26.506;2022-09-13T02:45:44;9.87;;;5.00;;
19509;SDS011;9896;42.486;26.506;2022-09-13T02:51:31;8.80;;;5.40;;
19509;SDS011;9896;42.486;26.506;2022-09-13T02:57:12;8.90;;;4.67;;
19509;SDS011;9896;42.486;26.506;2022-09-13T02:59:42;8.57;;;5.17;;
19509;SDS011;9896;42.486;26.506;2022-09-13T03:02:15;17.87;;;5.37;;
19509;SDS011;9896;42.486;26.506;2022-09-13T03:04:43;6.13;;;4.23;;
19509;SDS011;9896;42.486;26.506;2022-09-13T03:07:09;8.97;;;4.70;;
19509;SDS011;9896;42.486;26.506;2022-09-13T03:09:36;9.07;;;5.20;;
19509;SDS011;9896;42.486;26.506;2022-09-13T03:12:29;10.60;;;5.20;;
19509;SDS011;9896;42.486;26.506;2022-09-13T03:15:19;7.77;;;4.43;;
19509;SDS011;9896;42.486;26.506;2022-09-13T03:21:32;8.77;;;4.80;;
19509;SDS011;9896;42.486;26.506;2022-09-13T03:27:01;11.70;;;5.33;;
19509;SDS011;9896;42.486;26.506;2022-09-13T03:43:05;9.37;;;5.93;;
19509;SDS011;9896;42.486;26.506;2022-09-13T03:45:32;9.80;;;6.03;;
19509;SDS011;9896;42.486;26.506;2022-09-13T03:48:14;13.10;;;6.50;;
19509;SDS011;9896;42.486;26.506;2022-09-13T03:50:41;9.63;;;5.90;;
19509;SDS011;9896;42.486;26.506;2022-09-13T03:53:11;9.10;;;6.13;;
19509;SDS011;9896;42.486;26.506;2022-09-13T03:55:40;13.57;;;6.50;;
19509;SDS011;9896;42.486;26.506;2022-09-13T03:58:10;8.93;;;6.40;;
19509;SDS011;9896;42.486;26.506;2022-09-13T04:00:37;10.77;;;6.20;;
19509;SDS011;9896;42.486;26.506;2022-09-13T04:03:05;9.93;;;5.63;;
19509;SDS011;9896;42.486;26.506;2022-09-13T04:05:30;9.27;;;5.27;;
19509;SDS011;9896;42.486;26.506;2022-09-13T04:07:56;9.00;;;5.40;;
19509;SDS011;9896;42.486;26.506;2022-09-13T04:10:21;6.93;;;5.27;;
19509;SDS011;9896;42.486;26.506;2022-09-13T04:12:48;10.93;;;5.37;;
19509;SDS011;9896;42.486;26.506;2022-09-13T04:15:13;8.83;;;5.77;;
19509;SDS011;9896;42.486;26.506;2022-09-13T04:17:40;9.73;;;5.00;;
19509;SDS011;9896;42.486;26.506;2022-09-13T04:20:05;8.53;;;5.70;;
19509;SDS011;9896;42.486;26.506;2022-09-13T04:22:31;9.37;;;6.20;;
19509;SDS011;9896;42.486;26.506;2022-09-13T04:24:57;11.03;;;7.03;;
19509;SDS011;9896;42.486;26.506;2022-09-13T04:27:24;9.20;;;6.33;;
19509;SDS011;9896;42.486;26.506;2022-09-13T04:29:50;8.83;;;6.47;;
19509;SDS011;9896;42.486;26.506;2022-09-13T04:32:15;10.10;;;6.33;;
19509;SDS011;9896;42.486;26.506;2022-09-13T04:34:41;12.20;;;6.57;;
19509;SDS011;9896;42.486;26.506;2022-09-13T04:37:07;15.33;;;7.27;;
19509;SDS011;9896;42.486;26.506;2022-09-13T04:39:33;16.17;;;8.40;;
19509;SDS011;9896;42.486;26.506;2022-09-13T04:41:58;12.93;;;7.07;;
19509;SDS011;9896;42.486;26.506;2022-09-13T04:44:24;12.97;;;6.57;;
19509;SDS011;9896;42.486;26.506;2022-09-13T04:46:49;10.37;;;6.70;;
19509;SDS011;9896;42.486;26.506;2022-09-13T04:49:16;8.83;;;6.17;;
19509;SDS011;9896;42.486;26.506;2022-09-13T04:51:42;9.67;;;5.90;;
19509;SDS011;9896;42.486;26.506;2022-09-13T04:54:08;8.57;;;6.10;;
19509;SDS011;9896;42.486;26.506;2022-09-13T04:56:35;9.57;;;7.17;;
19509;SDS011;9896;42.486;26.506;2022-09-13T04:59:00;18.17;;;7.70;;
19509;SDS011;9896;42.486;26.506;2022-09-13T05:01:26;13.73;;;7.13;;
19509;SDS011;9896;42.486;26.506;2022-09-13T05:03:52;12.63;;;8.17;;
19509;SDS011;9896;42.486;26.506;2022-09-13T05:06:18;16.17;;;8.13;;
19509;SDS011;9896;42.486;26.506;2022-09-13T05:08:48;11.30;;;7.97;;
19509;SDS011;9896;42.486;26.506;2022-09-13T05:11:17;12.83;;;7.73;;
19509;SDS011;9896;42.486;26.506;2022-09-13T05:13:47;15.07;;;7.13;;
19509;SDS011;9896;42.486;26.506;2022-09-13T05:16:17;13.00;;;6.97;;
19509;SDS011;9896;42.486;26.506;2022-09-13T05:18:42;10.97;;;7.00;;
19509;SDS011;9896;42.486;26.506;2022-09-13T05:21:08;14.57;;;7.17;;
19509;SDS011;9896;42.486;26.506;2022-09-13T05:23:33;12.27;;;8.60;;
19509;SDS011;9896;42.486;26.506;2022-09-13T05:26:03;13.17;;;7.17;;
19509;SDS011;9896;42.486;26.506;2022-09-13T05:28:30;17.23;;;8.07;;
19509;SDS011;9896;42.486;26.506;2022-09-13T05:30:57;11.03;;;7.60;;
19509;SDS011;9896;42.486;26.506;2022-09-13T05:33:25;14.47;;;7.40;;
19509;SDS011;9896;42.486;26.506;2022-09-13T05:35:52;14.30;;;7.80;;
19509;SDS011;9896;42.486;26.506;2022-09-13T05:38:18;11.93;;;7.73;;
19509;SDS011;9896;42.486;26.506;2022-09-13T05:40:44;13.67;;;8.03;;
19509;SDS011;9896;42.486;26.506;2022-09-13T05:43:09;14.90;;;7.97;;
19509;SDS011;9896;42.486;26.506;2022-09-13T05:45:35;13.23;;;7.20;;
19509;SDS011;9896;42.486;26.506;2022-09-13T05:48:00;10.37;;;7.10;;
19509;SDS011;9896;42.486;26.506;2022-09-13T05:50:26;9.63;;;6.10;;
19509;SDS011;9896;42.486;26.506;2022-09-13T05:52:52;9.17;;;5.97;;
19509;SDS011;9896;42.486;26.506;2022-09-13T05:55:19;8.60;;;4.60;;
19509;SDS011;9896;42.486;26.506;2022-09-13T05:57:46;11.37;;;5.40;;
19509;SDS011;9896;42.486;26.506;2022-09-13T06:00:12;13.10;;;5.37;;
19509;SDS011;9896;42.486;26.506;2022-09-13T06:02:38;6.77;;;4.63;;
19509;SDS011;9896;42.486;26.506;2022-09-13T06:05:05;8.93;;;4.80;;
19509;SDS011;9896;42.486;26.506;2022-09-13T06:07:32;7.57;;;4.80;;
19509;SDS011;9896;42.486;26.506;2022-09-13T06:09:57;7.53;;;4.87;;
19509;SDS011;9896;42.486;26.506;2022-09-13T06:12:22;5.57;;;4.37;;
19509;SDS011;9896;42.486;26.506;2022-09-13T06:14:48;9.00;;;4.80;;
19509;SDS011;9896;42.486;26.506;2022-09-13T06:17:13;5.10;;;4.00;;
19509;SDS011;9896;42.486;26.506;2022-09-13T06:19:39;8.03;;;5.03;;
19509;SDS011;9896;42.486;26.506;2022-09-13T06:22:04;7.27;;;5.27;;
19509;SDS011;9896;42.486;26.506;2022-09-13T06:24:30;25.07;;;5.73;;
19509;SDS011;9896;42.486;26.506;2022-09-13T06:26:56;5.03;;;3.57;;
19509;SDS011;9896;42.486;26.506;2022-09-13T06:29:22;13.43;;;3.87;;
19509;SDS011;9896;42.486;26.506;2022-09-13T06:31:47;2.50;;;2.30;;
19509;SDS011;9896;42.486;26.506;2022-09-13T06:34:13;4.60;;;2.80;;
19509;SDS011;9896;42.486;26.506;2022-09-13T06:36:40;4.93;;;2.83;;
19509;SDS011;9896;42.486;26.506;2022-09-13T06:39:05;4.10;;;2.77;;
19509;SDS011;9896;42.486;26.506;2022-09-13T06:41:32;4.13;;;2.20;;
19509;SDS011;9896;42.486;26.506;2022-09-13T06:43:58;2.87;;;2.17;;
19509;SDS011;9896;42.486;26.506;2022-09-13T06:46:26;2.73;;;2.20;;
19509;SDS011;9896;42.486;26.506;2022-09-13T06:48:53;2.33;;;2.13;;
19509;SDS011;9896;42.486;26.506;2022-09-13T06:51:21;2.20;;;2.00;;
19509;SDS011;9896;42.486;26.506;2022-09-13T06:53:48;7.27;;;2.10;;
19509;SDS011;9896;42.486;26.506;2022-09-13T06:58:41;2.47;;;2.03;;
19509;SDS011;9896;42.486;26.506;2022-09-13T07:01:11;2.50;;;2.07;;
19509;SDS011;9896;42.486;26.506;2022-09-13T07:03:53;3.13;;;2.30;;
19509;SDS011;9896;42.486;26.506;2022-09-13T07:06:23;2.20;;;2.00;;
19509;SDS011;9896;42.486;26.506;2022-09-13T07:08:51;2.23;;;2.03;;
19509;SDS011;9896;42.486;26.506;2022-09-13T07:11:18;2.50;;;2.10;;
19509;SDS011;9896;42.486;26.506;2022-09-13T07:13:47;2.13;;;1.80;;
19509;SDS011;9896;42.486;26.506;2022-09-13T07:16:16;2.17;;;1.97;;
19509;SDS011;9896;42.486;26.506;2022-09-13T07:18:53;2.80;;;1.97;;
19509;SDS011;9896;42.486;26.506;2022-09-13T07:21:20;3.13;;;1.90;;
19509;SDS011;9896;42.486;26.506;2022-09-13T07:23:46;3.07;;;1.67;;
19509;SDS011;9896;42.486;26.506;2022-09-13T07:26:12;3.37;;;1.80;;
19509;SDS011;9896;42.486;26.506;2022-09-13T07:28:38;2.63;;;2.00;;
19509;SDS011;9896;42.486;26.506;2022-09-13T07:31:06;2.97;;;2.20;;
19509;SDS011;9896;42.486;26.506;2022-09-13T07:33:37;3.27;;;2.00;;
19509;SDS011;9896;42.486;26.506;2022-09-13T07:36:04;3.23;;;1.90;;
19509;SDS011;9896;42.486;26.506;2022-09-13T07:38:31;2.87;;;2.00;;
19509;SDS011;9896;42.486;26.506;2022-09-13T07:40:58;2.30;;;1.80;;
19509;SDS011;9896;42.486;26.506;2022-09-13T07:43:27;2.30;;;2.10;;
19509;SDS011;9896;42.486;26.506;2022-09-13T07:46:06;2.30;;;2.10;;
19509;SDS011;9896;42.486;26.506;2022-09-13T07:48:33;3.70;;;2.00;;
19509;SDS011;9896;42.486;26.506;2022-09-13T07:51:01;5.67;;;2.20;;
19509;SDS011;9896;42.486;26.506;2022-09-13T07:53:27;1.93;;;1.50;;
19509;SDS011;9896;42.486;26.506;2022-09-13T07:55:53;3.07;;;1.70;;
19509;SDS011;9896;42.486;26.506;2022-09-13T07:58:24;3.27;;;1.57;;
19509;SDS011;9896;42.486;26.506;2022-09-13T08:00:50;4.70;;;1.90;;
19509;SDS011;9896;42.486;26.506;2022-09-13T08:03:15;6.00;;;2.00;;
19509;SDS011;9896;42.486;26.506;2022-09-13T08:05:41;3.27;;;2.00;;
19509;SDS011;9896;42.486;26.506;2022-09-13T08:08:06;2.33;;;2.00;;
19509;SDS011;9896;42.486;26.506;2022-09-13T08:10:32;2.80;;;1.90;;
19509;SDS011;9896;42.486;26.506;2022-09-13T08:12:58;6.40;;;2.60;;
19509;SDS011;9896;42.486;26.506;2022-09-13T08:15:24;2.30;;;2.07;;
19509;SDS011;9896;42.486;26.506;2022-09-13T08:17:50;3.90;;;2.47;;
19509;SDS011;9896;42.486;26.506;2022-09-13T08:20:16;6.00;;;2.40;;
19509;SDS011;9896;42.486;26.506;2022-09-13T08:22:42;3.60;;;2.17;;
19509;SDS011;9896;42.486;26.506;2022-09-13T08:25:07;5.40;;;2.10;;
19509;SDS011;9896;42.486;26.506;2022-09-13T08:27:33;2.87;;;2.40;;
19509;SDS011;9896;42.486;26.506;2022-09-13T08:29:58;4.30;;;2.30;;
19509;SDS011;9896;42.486;26.506;2022-09-13T08:32:24;2.97;;;2.00;;
19509;SDS011;9896;42.486;26.506;2022-09-13T08:34:49;3.37;;;2.50;;
19509;SDS011;9896;42.486;26.506;2022-09-13T08:37:15;5.60;;;2.60;;
19509;SDS011;9896;42.486;26.506;2022-09-13T08:39:40;4.10;;;2.60;;
19509;SDS011;9896;42.486;26.506;2022-09-13T08:42:10;4.20;;;2.50;;
19509;SDS011;9896;42.486;26.506;2022-09-13T08:44:46;4.57;;;2.40;;
19509;SDS011;9896;42.486;26.506;2022-09-13T08:49:49;4.50;;;2.23;;
19509;SDS011;9896;42.486;26.506;2022-09-13T08:52:39;2.67;;;1.80;;
19509;SDS011;9896;42.486;26.506;2022-09-13T08:57:52;4.80;;;2.20;;
19509;SDS011;9896;42.486;26.506;2022-09-13T09:00:41;4.53;;;2.00;;
19509;SDS011;9896;42.486;26.506;2022-09-13T09:06:22;4.27;;;2.00;;
19509;SDS011;9896;42.486;26.506;2022-09-13T09:14:00;5.60;;;2.23;;
19509;SDS011;9896;42.486;26.506;2022-09-13T09:16:40;5.10;;;1.63;;
19509;SDS011;9896;42.486;26.506;2022-09-13T09:19:13;1.70;;;1.60;;
19509;SDS011;9896;42.486;26.506;2022-09-13T09:21:49;2.17;;;2.00;;
19509;SDS011;9896;42.486;26.506;2022-09-13T09:24:24;3.30;;;1.77;;
19509;SDS011;9896;42.486;26.506;2022-09-13T09:26:54;2.17;;;1.70;;
19509;SDS011;9896;42.486;26.506;2022-09-13T09:29:25;5.53;;;2.00;;
19509;SDS011;9896;42.486;26.506;2022-09-13T09:32:00;4.93;;;1.83;;
19509;SDS011;9896;42.486;26.506;2022-09-13T09:37:27;2.13;;;1.60;;
19509;SDS011;9896;42.486;26.506;2022-09-13T09:39:59;3.40;;;1.93;;
19509;SDS011;9896;42.486;26.506;2022-09-13T09:42:31;2.40;;;2.03;;
19509;SDS011;9896;42.486;26.506;2022-09-13T09:45:30;2.40;;;1.93;;
19509;SDS011;9896;42.486;26.506;2022-09-13T09:47:59;2.00;;;1.53;;
19509;SDS011;9896;42.486;26.506;2022-09-13T09:50:37;3.07;;;1.90;;
19509;SDS011;9896;42.486;26.506;2022-09-13T09:53:13;2.60;;;1.70;;
19509;SDS011;9896;42.486;26.506;2022-09-13T09:55:46;4.00;;;1.73;;
19509;SDS011;9896;42.486;26.506;2022-09-13T09:58:17;1.97;;;1.63;;
19509;SDS011;9896;42.486;26.506;2022-09-13T10:01:01;5.00;;;2.07;;
19509;SDS011;9896;42.486;26.506;2022-09-13T10:03:30;3.17;;;1.97;;
19509;SDS011;9896;42.486;26.506;2022-09-13T10:06:10;1.93;;;1.80;;
19509;SDS011;9896;42.486;26.506;2022-09-13T10:08:39;2.00;;;1.80;;
19509;SDS011;9896;42.486;26.506;2022-09-13T10:11:07;2.50;;;1.50;;
19509;SDS011;9896;42.486;26.506;2022-09-13T10:13:33;2.77;;;1.70;;
19509;SDS011;9896;42.486;26.506;2022-09-13T10:16:03;1.93;;;1.67;;
19509;SDS011;9896;42.486;26.506;2022-09-13T10:18:34;2.17;;;1.93;;
19509;SDS011;9896;42.486;26.506;2022-09-13T10:23:35;3.07;;;1.80;;
19509;SDS011;9896;42.486;26.506;2022-09-13T10:28:39;1.83;;;1.73;;
19509;SDS011;9896;42.486;26.506;2022-09-13T10:31:09;7.30;;;2.13;;
19509;SDS011;9896;42.486;26.506;2022-09-13T10:33:41;7.57;;;2.00;;
19509;SDS011;9896;42.486;26.506;2022-09-13T10:36:34;4.50;;;2.17;;
19509;SDS011;9896;42.486;26.506;2022-09-13T10:41:56;2.63;;;2.00;;
19509;SDS011;9896;42.486;26.506;2022-09-13T10:47:00;4.33;;;2.23;;
19509;SDS011;9896;42.486;26.506;2022-09-13T10:49:35;4.30;;;2.20;;
19509;SDS011;9896;42.486;26.506;2022-09-13T10:52:20;3.03;;;2.17;;
19509;SDS011;9896;42.486;26.506;2022-09-13T10:54:51;3.03;;;1.73;;
19509;SDS011;9896;42.486;26.506;2022-09-13T10:59:57;2.53;;;1.97;;
19509;SDS011;9896;42.486;26.506;2022-09-13T11:16:39;2.27;;;2.03;;
19509;SDS011;9896;42.486;26.506;2022-09-13T11:22:43;5.63;;;1.80;;
19509;SDS011;9896;42.486;26.506;2022-09-13T11:28:18;1.55;;;1.20;;
19509;SDS011;9896;42.486;26.506;2022-09-13T11:31:12;2.33;;;1.53;;
19509;SDS011;9896;42.486;26.506;2022-09-13T11:34:04;1.97;;;1.77;;
19509;SDS011;9896;42.486;26.506;2022-09-13T11:39:36;1.97;;;1.70;;
19509;SDS011;9896;42.486;26.506;2022-09-13T11:42:24;1.50;;;1.40;;
19509;SDS011;9896;42.486;26.506;2022-09-13T11:45:14;2.43;;;1.70;;
19509;SDS011;9896;42.486;26.506;2022-09-13T11:50:34;3.27;;;1.50;;
19509;SDS011;9896;42.486;26.506;2022-09-13T11:55:37;1.70;;;1.47;;
19509;SDS011;9896;42.486;26.506;2022-09-13T11:58:14;1.83;;;1.70;;
19509;SDS011;9896;42.486;26.506;2022-09-13T12:00:49;1.73;;;1.60;;
19509;SDS011;9896;42.486;26.506;2022-09-13T12:03:27;1.70;;;1.60;;
19509;SDS011;9896;42.486;26.506;2022-09-13T12:06:05;1.90;;;1.70;;
19509;SDS011;9896;42.486;26.506;2022-09-13T12:08:40;2.70;;;1.90;;
19509;SDS011;9896;42.486;26.506;2022-09-13T12:11:14;2.67;;;1.83;;
19509;SDS011;9896;42.486;26.506;2022-09-13T12:13:50;1.60;;;1.50;;
19509;SDS011;9896;42.486;26.506;2022-09-13T12:16:30;2.33;;;1.70;;
19509;SDS011;9896;42.486;26.506;2022-09-13T12:18:59;1.70;;;1.60;;
19509;SDS011;9896;42.486;26.506;2022-09-13T12:21:31;1.90;;;1.80;;
19509;SDS011;9896;42.486;26.506;2022-09-13T12:32:30;3.93;;;2.00;;
19509;SDS011;9896;42.486;26.506;2022-09-13T12:40:20;4.57;;;2.30;;
19509;SDS011;9896;42.486;26.506;2022-09-13T12:43:28;3.70;;;1.83;;
19509;SDS011;9896;42.486;26.506;2022-09-13T12:46:08;1.90;;;1.70;;
19509;SDS011;9896;42.486;26.506;2022-09-13T12:48:43;4.13;;;2.50;;
19509;SDS011;9896;42.486;26.506;2022-09-13T12:51:19;3.63;;;1.80;;
19509;SDS011;9896;42.486;26.506;2022-09-13T13:01:25;1.93;;;1.70;;
19509;SDS011;9896;42.486;26.506;2022-09-13T13:06:24;3.42;;;1.90;;
19509;SDS011;9896;42.486;26.506;2022-09-13T13:09:02;3.10;;;1.80;;
19509;SDS011;9896;42.486;26.506;2022-09-13T13:11:42;2.28;;;1.45;;
19509;SDS011;9896;42.486;26.506;2022-09-13T13:14:42;1.92;;;1.70;;
19509;SDS011;9896;42.486;26.506;2022-09-13T13:31:10;4.20;;;1.70;;
19509;SDS011;9896;42.486;26.506;2022-09-13T13:33:53;5.60;;;1.88;;
19509;SDS011;9896;42.486;26.506;2022-09-13T13:39:11;1.80;;;1.67;;
19509;SDS011;9896;42.486;26.506;2022-09-13T13:49:44;3.50;;;1.88;;
19509;SDS011;9896;42.486;26.506;2022-09-13T13:52:38;2.95;;;1.60;;
19509;SDS011;9896;42.486;26.506;2022-09-13T13:55:38;3.80;;;1.83;;
19509;SDS011;9896;42.486;26.506;2022-09-13T13:58:32;4.70;;;1.40;;
19509;SDS011;9896;42.486;26.506;2022-09-13T14:00:54;3.17;;;2.03;;
19509;SDS011;9896;42.486;26.506;2022-09-13T14:06:02;3.13;;;1.70;;
19509;SDS011;9896;42.486;26.506;2022-09-13T14:11:35;1.70;;;1.60;;
19509;SDS011;9896;42.486;26.506;2022-09-13T14:16:45;6.85;;;2.10;;
19509;SDS011;9896;42.486;26.506;2022-09-13T14:22:21;3.75;;;1.77;;
19509;SDS011;9896;42.486;26.506;2022-09-13T14:24:52;2.05;;;1.75;;
19509;SDS011;9896;42.486;26.506;2022-09-13T14:27:23;2.00;;;1.70;;
19509;SDS011;9896;42.486;26.506;2022-09-13T14:29:59;3.30;;;1.40;;
19509;SDS011;9896;42.486;26.506;2022-09-13T14:32:29;1.98;;;1.42;;
19509;SDS011;9896;42.486;26.506;2022-09-13T14:35:04;1.67;;;1.52;;
19509;SDS011;9896;42.486;26.506;2022-09-13T14:37:32;1.42;;;1.33;;
19509;SDS011;9896;42.486;26.506;2022-09-13T14:40:19;1.98;;;1.77;;
19509;SDS011;9896;42.486;26.506;2022-09-13T14:42:47;5.03;;;1.50;;
19509;SDS011;9896;42.486;26.506;2022-09-13T14:45:15;1.70;;;1.58;;
19509;SDS011;9896;42.486;26.506;2022-09-13T14:47:49;2.20;;;1.40;;
19509;SDS011;9896;42.486;26.506;2022-09-13T14:50:26;1.75;;;1.40;;
19509;SDS011;9896;42.486;26.506;2022-09-13T14:53:05;1.40;;;1.30;;
19509;SDS011;9896;42.486;26.506;2022-09-13T14:55:39;2.15;;;1.60;;
19509;SDS011;9896;42.486;26.506;2022-09-13T14:58:16;1.40;;;1.30;;
19509;SDS011;9896;42.486;26.506;2022-09-13T15:00:59;6.28;;;1.60;;
19509;SDS011;9896;42.486;26.506;2022-09-13T15:03:29;1.40;;;1.30;;
19509;SDS011;9896;42.486;26.506;2022-09-13T15:05:56;6.00;;;1.77;;
19509;SDS011;9896;42.486;26.506;2022-09-13T15:10:58;1.42;;;1.33;;
19509;SDS011;9896;42.486;26.506;2022-09-13T15:13:25;1.73;;;1.63;;
19509;SDS011;9896;42.486;26.506;2022-09-13T15:15:51;2.80;;;1.48;;
19509;SDS011;9896;42.486;26.506;2022-09-13T15:20:48;1.50;;;1.40;;
19509;SDS011;9896;42.486;26.506;2022-09-13T15:23:23;1.73;;;1.40;;
19509;SDS011;9896;42.486;26.506;2022-09-13T15:28:46;1.53;;;1.43;;
19509;SDS011;9896;42.486;26.506;2022-09-13T15:31:23;3.08;;;1.50;;
19509;SDS011;9896;42.486;26.506;2022-09-13T15:36:48;5.77;;;1.70;;
19509;SDS011;9896;42.486;26.506;2022-09-13T15:39:26;2.50;;;1.87;;
19509;SDS011;9896;42.486;26.506;2022-09-13T15:41:58;5.17;;;1.90;;
19509;SDS011;9896;42.486;26.506;2022-09-13T15:44:25;5.63;;;1.58;;
19509;SDS011;9896;42.486;26.506;2022-09-13T15:46:58;2.50;;;1.80;;
19509;SDS011;9896;42.486;26.506;2022-09-13T15:49:26;4.45;;;2.28;;
19509;SDS011;9896;42.486;26.506;2022-09-13T15:51:54;6.43;;;1.80;;
19509;SDS011;9896;42.486;26.506;2022-09-13T15:54:21;5.38;;;2.20;;
19509;SDS011;9896;42.486;26.506;2022-09-13T15:56:48;2.00;;;1.70;;
19509;SDS011;9896;42.486;26.506;2022-09-13T15:59:17;2.47;;;1.80;;
19509;SDS011;9896;42.486;26.506;2022-09-13T16:01:48;3.33;;;2.00;;
19509;SDS011;9896;42.486;26.506;2022-09-13T16:04:15;2.55;;;2.10;;
19509;SDS011;9896;42.486;26.506;2022-09-13T16:06:41;3.17;;;2.60;;
19509;SDS011;9896;42.486;26.506;2022-09-13T16:09:10;3.85;;;2.38;;
19509;SDS011;9896;42.486;26.506;2022-09-13T16:11:48;11.00;;;6.10;;
19509;SDS011;9896;42.486;26.506;2022-09-13T16:14:14;9.38;;;3.05;;
19509;SDS011;9896;42.486;26.506;2022-09-13T16:16:41;7.18;;;2.53;;
19509;SDS011;9896;42.486;26.506;2022-09-13T16:19:17;9.45;;;4.68;;
19509;SDS011;9896;42.486;26.506;2022-09-13T16:21:44;6.40;;;3.00;;
19509;SDS011;9896;42.486;26.506;2022-09-13T16:24:11;2.67;;;1.87;;
19509;SDS011;9896;42.486;26.506;2022-09-13T16:26:37;2.10;;;1.90;;
19509;SDS011;9896;42.486;26.506;2022-09-13T16:29:03;5.63;;;2.10;;
19509;SDS011;9896;42.486;26.506;2022-09-13T16:31:29;4.23;;;2.43;;
19509;SDS011;9896;42.486;26.506;2022-09-13T16:33:55;4.47;;;2.20;;
19509;SDS011;9896;42.486;26.506;2022-09-13T16:36:21;5.23;;;2.30;;
19509;SDS011;9896;42.486;26.506;2022-09-13T16:38:46;2.33;;;2.13;;
19509;SDS011;9896;42.486;26.506;2022-09-13T16:41:12;4.23;;;2.30;;
19509;SDS011;9896;42.486;26.506;2022-09-13T16:43:37;4.87;;;2.50;;
19509;SDS011;9896;42.486;26.506;2022-09-13T16:46:06;6.33;;;2.90;;
19509;SDS011;9896;42.486;26.506;2022-09-13T16:48:33;4.70;;;2.50;;
19509;SDS011;9896;42.486;26.506;2022-09-13T16:51:06;7.73;;;2.60;;
19509;SDS011;9896;42.486;26.506;2022-09-13T16:53:33;5.03;;;2.57;;
19509;SDS011;9896;42.486;26.506;2022-09-13T16:56:09;5.40;;;2.60;;
19509;SDS011;9896;42.486;26.506;2022-09-13T16:58:36;4.20;;;2.40;;
19509;SDS011;9896;42.486;26.506;2022-09-13T17:01:07;25.77;;;14.40;;
19509;SDS011;9896;42.486;26.506;2022-09-13T17:03:34;7.33;;;2.80;;
19509;SDS011;9896;42.486;26.506;2022-09-13T17:06:02;6.90;;;2.77;;
19509;SDS011;9896;42.486;26.506;2022-09-13T17:08:29;7.13;;;2.30;;
19509;SDS011;9896;42.486;26.506;2022-09-13T17:10:55;5.23;;;2.63;;
19509;SDS011;9896;42.486;26.506;2022-09-13T17:13:21;2.70;;;1.90;;
19509;SDS011;9896;42.486;26.506;2022-09-13T17:15:48;4.80;;;2.03;;
19509;SDS011;9896;42.486;26.506;2022-09-13T17:18:14;5.00;;;2.30;;
19509;SDS011;9896;42.486;26.506;2022-09-13T17:20:46;5.73;;;2.47;;
19509;SDS011;9896;42.486;26.506;2022-09-13T17:23:13;4.27;;;2.60;;
19509;SDS011;9896;42.486;26.506;2022-09-13T17:25:40;5.53;;;3.00;;
19509;SDS011;9896;42.486;26.506;2022-09-13T17:28:10;8.53;;;2.47;;
19509;SDS011;9896;42.486;26.506;2022-09-13T17:30:36;4.37;;;2.37;;
19509;SDS011;9896;42.486;26.506;2022-09-13T17:33:01;8.40;;;3.10;;
19509;SDS011;9896;42.486;26.506;2022-09-13T17:35:30;2.60;;;2.40;;
19509;SDS011;9896;42.486;26.506;2022-09-13T17:37:56;4.37;;;2.43;;
19509;SDS011;9896;42.486;26.506;2022-09-13T17:40:22;2.50;;;2.10;;
19509;SDS011;9896;42.486;26.506;2022-09-13T17:42:47;10.33;;;3.80;;
19509;SDS011;9896;42.486;26.506;2022-09-13T17:45:14;6.00;;;3.70;;
19509;SDS011;9896;42.486;26.506;2022-09-13T17:47:39;6.83;;;2.30;;
19509;SDS011;9896;42.486;26.506;2022-09-13T17:50:05;6.83;;;2.73;;
19509;SDS011;9896;42.486;26.506;2022-09-13T17:52:31;6.07;;;2.87;;
19509;SDS011;9896;42.486;26.506;2022-09-13T17:54:58;9.97;;;3.73;;
19509;SDS011;9896;42.486;26.506;2022-09-13T17:57:23;5.07;;;2.43;;
19509;SDS011;9896;42.486;26.506;2022-09-13T17:59:49;5.97;;;2.50;;
19509;SDS011;9896;42.486;26.506;2022-09-13T18:02:15;8.20;;;2.67;;
19509;SDS011;9896;42.486;26.506;2022-09-13T18:04:41;3.70;;;2.50;;
19509;SDS011;9896;42.486;26.506;2022-09-13T18:07:06;2.20;;;2.00;;
19509;SDS011;9896;42.486;26.506;2022-09-13T18:09:32;2.97;;;1.80;;
19509;SDS011;9896;42.486;26.506;2022-09-13T18:11:57;4.40;;;2.17;;
19509;SDS011;9896;42.486;26.506;2022-09-13T18:14:23;4.90;;;2.47;;
19509;SDS011;9896;42.486;26.506;2022-09-13T18:16:50;6.90;;;4.17;;
19509;SDS011;9896;42.486;26.506;2022-09-13T18:19:20;2.00;;;1.80;;
19509;SDS011;9896;42.486;26.506;2022-09-13T18:21:47;2.17;;;1.90;;
19509;SDS011;9896;42.486;26.506;2022-09-13T18:24:13;3.23;;;2.27;;